Time;durP1;ratioP1;P1;durP2;ratioP2;P2;SDS_P1;SDS_P2;PMS_P1;PMS_P2;Temp;Humidity;BMP_temperature;BMP_pressure;BME280_temperature;BME280_humidity;BME280_pressure;Samples;Min_cycle;Max_cycle;Signal;HPM_P1;HPM_P2
2022/10/26 00:01:30;;;;;;;21.08;11.40;;;;;;;10.04;100.00;101543.88;5081455;28;20060;-80
2022/10/26 00:03:58;;;;;;;14.85;9.98;;;;;;;10.02;100.00;101550.88;5057694;28;20043;-79
2022/10/26 00:06:27;;;;;;;16.20;10.95;;;;;;;10.00;100.00;101547.34;5095720;28;20031;-80
2022/10/26 00:08:56;;;;;;;16.25;11.00;;;;;;;9.99;100.00;101549.94;5073903;28;20051;-79
2022/10/26 00:11:24;;;;;;;17.65;10.60;;;;;;;9.95;100.00;101554.25;5102406;28;20396;-79
2022/10/26 00:13:53;;;;;;;15.85;11.43;;;;;;;9.93;100.00;101551.59;5086594;28;20062;-79
2022/10/26 00:16:25;;;;;;;15.07;10.60;;;;;;;9.92;100.00;101549.84;5083363;28;20054;-80
2022/10/26 00:18:53;;;;;;;18.45;10.52;;;;;;;9.91;100.00;101558.59;5056754;28;20040;-80
2022/10/26 00:21:21;;;;;;;23.75;12.20;;;;;;;9.88;100.00;101568.19;5076783;28;20040;-79
2022/10/26 00:23:50;;;;;;;23.90;12.35;;;;;;;9.86;100.00;101562.00;5072397;28;20048;-79
2022/10/26 00:26:18;;;;;;;17.85;11.68;;;;;;;9.84;100.00;101553.19;5104092;28;20051;-79
2022/10/26 00:28:47;;;;;;;17.40;12.38;;;;;;;9.83;100.00;101551.41;5098005;28;20043;-79
2022/10/26 00:31:16;;;;;;;19.02;11.95;;;;;;;9.84;100.00;101547.94;5076506;28;20036;-79
2022/10/26 00:33:45;;;;;;;23.25;11.98;;;;;;;9.83;100.00;101552.31;5057559;28;20039;-79
2022/10/26 00:36:15;;;;;;;19.00;11.55;;;;;;;9.81;100.00;101553.13;5056600;28;20048;-80
2022/10/26 00:38:52;;;;;;;16.30;11.48;;;;;;;9.79;100.00;101549.59;5083411;28;20046;-81
2022/10/26 00:41:23;;;;;;;20.33;11.23;;;;;;;9.76;100.00;101546.03;5077258;28;20381;-80
2022/10/26 00:43:53;;;;;;;19.95;11.90;;;;;;;9.74;100.00;101552.16;5073320;28;20146;-80
2022/10/26 00:46:34;;;;;;;19.23;11.48;;;;;;;9.72;100.00;101541.59;5093032;28;20051;-78
2022/10/26 00:49:17;;;;;;;18.48;11.45;;;;;;;9.71;100.00;101546.81;5099416;28;20056;-79
2022/10/26 00:51:51;;;;;;;16.95;11.55;;;;;;;9.68;100.00;101549.41;5066040;28;20044;-79
2022/10/26 00:54:20;;;;;;;15.07;11.45;;;;;;;9.64;100.00;101532.69;5099445;28;20151;-78
2022/10/26 00:56:50;;;;;;;19.90;11.25;;;;;;;9.63;100.00;101536.16;5073954;28;20056;-79
2022/10/26 00:59:20;;;;;;;17.60;12.18;;;;;;;9.63;100.00;101544.06;5078214;28;20047;-81
2022/10/26 01:01:50;;;;;;;20.87;12.03;;;;;;;9.61;100.00;101537.88;5087317;28;20271;-80
2022/10/26 01:04:18;;;;;;;19.27;12.23;;;;;;;9.61;100.00;101537.88;5086184;28;20278;-81
2022/10/26 01:06:48;;;;;;;20.13;13.10;;;;;;;9.61;100.00;101532.63;5043822;28;20047;-81
2022/10/26 01:09:17;;;;;;;18.05;12.50;;;;;;;9.60;100.00;101516.78;5091050;28;20039;-78
2022/10/26 01:11:52;;;;;;;19.10;12.23;;;;;;;9.60;100.00;101519.41;5080305;28;20048;-81
2022/10/26 01:14:23;;;;;;;21.88;13.40;;;;;;;9.61;100.00;101519.44;5053215;28;20043;-80
2022/10/26 01:17:36;;;;;;;19.67;11.57;;;;;;;9.61;100.00;101519.44;5060126;28;20059;-80
2022/10/26 01:20:29;;;;;;;18.45;12.70;;;;;;;9.61;100.00;101515.94;5069619;28;20417;-79
2022/10/26 01:23:04;;;;;;;23.15;11.77;;;;;;;9.59;100.00;101510.66;5059181;28;20560;-78
2022/10/26 01:26:03;;;;;;;19.23;11.38;;;;;;;9.56;100.00;101511.50;5087188;28;20078;-78
2022/10/26 01:29:02;;;;;;;16.70;10.80;;;;;;;9.56;100.00;101522.03;5097756;28;20389;-82
2022/10/26 01:31:40;;;;;;;20.75;11.82;;;;;;;9.58;100.00;101508.88;5108541;28;20504;-80
2022/10/26 01:34:21;;;;;;;22.77;12.63;;;;;;;9.56;100.00;101510.59;5093098;28;20032;-79
2022/10/26 01:36:57;;;;;;;18.23;11.20;;;;;;;9.56;100.00;101502.69;5059925;28;20394;-79
2022/10/26 01:39:38;;;;;;;13.43;11.35;;;;;;;9.56;100.00;101507.94;5090512;28;20492;-79
2022/10/26 01:42:08;;;;;;;;;;;;;;;9.54;100.00;101500.03;5090172;28;20600;-79
2022/10/26 01:44:45;;;;;;;18.10;12.55;;;;;;;9.55;100.00;101503.56;5084867;28;19920;-79
2022/10/26 01:47:19;;;;;;;18.80;13.07;;;;;;;9.54;100.00;101501.78;5082554;28;20051;-79
2022/10/26 01:49:55;;;;;;;24.23;14.43;;;;;;;9.54;100.00;101509.66;5090908;28;20523;-80
2022/10/26 01:52:24;;;;;;;24.27;13.63;;;;;;;9.54;100.00;101509.66;5061284;28;20048;-79
2022/10/26 01:55:19;;;;;;;23.38;12.45;;;;;;;9.54;100.00;101496.50;5075166;28;20452;-78
2022/10/26 01:57:50;;;;;;;19.15;12.50;;;;;;;9.54;100.00;101496.50;5081714;28;20056;-80
2022/10/26 02:00:19;;;;;;;22.42;13.23;;;;;;;9.53;100.00;101494.75;5079075;28;20500;-81
2022/10/26 02:03:01;;;;;;;24.00;13.50;;;;;;;9.53;100.00;101494.75;5075615;28;20048;-81
2022/10/26 02:05:46;;;;;;;20.92;12.68;;;;;;;9.52;100.00;101482.44;5105954;28;20047;-81
2022/10/26 02:08:36;;;;;;;23.25;12.32;;;;;;;9.51;100.00;101484.19;5061683;28;20040;-81
2022/10/26 02:11:13;;;;;;;16.27;11.70;;;;;;;9.52;100.00;101487.72;5083472;28;20253;-79
2022/10/26 02:14:14;;;;;;;17.00;12.52;;;;;;;9.53;100.00;101481.59;5086753;28;20032;-80
2022/10/26 02:16:54;;;;;;;19.10;13.10;;;;;;;9.52;100.00;101483.31;5052676;28;20044;-80
2022/10/26 02:19:35;;;;;;;17.98;11.95;;;;;;;9.53;100.00;101478.97;5084041;28;20044;-80
2022/10/26 02:22:27;;;;;;;20.08;12.13;;;;;;;9.52;100.00;101471.94;5055982;28;20079;-80
2022/10/26 02:25:00;;;;;;;18.58;12.07;;;;;;;9.50;100.00;101469.25;5047409;28;20352;-80
2022/10/26 02:27:33;;;;;;;20.77;12.95;;;;;;;9.51;100.00;101472.81;5077082;28;20288;-80
2022/10/26 02:30:04;;;;;;;18.23;13.10;;;;;;;9.51;100.00;101467.53;5088278;28;20044;-80
2022/10/26 02:32:36;;;;;;;21.70;14.48;;;;;;;9.50;100.00;101465.75;5064610;28;20062;-80
2022/10/26 02:35:05;;;;;;;20.02;13.88;;;;;;;9.49;100.00;101462.25;5076710;28;20062;-80
2022/10/26 02:37:35;;;;;;;15.93;12.45;;;;;;;9.50;100.00;101460.50;5071678;28;20059;-79
2022/10/26 02:40:10;;;;;;;17.08;12.65;;;;;;;9.49;100.00;101463.97;5066905;28;20055;-80
2022/10/26 02:42:43;;;;;;;21.75;12.98;;;;;;;9.48;100.00;101465.72;5064176;28;20405;-80
2022/10/26 02:45:17;;;;;;;20.65;11.63;;;;;;;9.47;100.00;101461.34;5104386;28;20276;-80
2022/10/26 02:47:45;;;;;;;18.73;11.80;;;;;;;9.45;100.00;101456.88;5103576;28;20058;-80
2022/10/26 02:50:18;;;;;;;18.67;13.90;;;;;;;9.44;100.00;101455.13;5027591;28;20056;-80
2022/10/26 02:52:52;;;;;;;20.08;12.20;;;;;;;9.44;100.00;101452.50;5070367;28;20040;-80
2022/10/26 02:55:34;;;;;;;21.67;14.02;;;;;;;9.43;100.00;101450.72;5055956;28;20058;-79
2022/10/26 02:58:08;;;;;;;20.65;12.82;;;;;;;9.41;100.00;101452.44;5105171;28;20071;-80
2022/10/26 03:00:36;;;;;;;16.55;12.05;;;;;;;9.38;100.00;101452.41;5088286;28;20497;-80
2022/10/26 03:03:05;;;;;;;19.92;12.82;;;;;;;9.34;100.00;101447.06;5095829;28;20055;-81
2022/10/26 03:05:35;;;;;;;15.45;11.25;;;;;;;9.33;100.00;101450.53;5086264;28;20044;-80
2022/10/26 03:08:04;;;;;;;21.23;12.90;;;;;;;9.33;100.00;101457.56;5097927;28;20043;-80
2022/10/26 03:10:36;;;;;;;19.58;13.52;;;;;;;9.33;100.00;101454.94;5044796;28;20393;-79
2022/10/26 03:13:05;;;;;;;17.80;11.93;;;;;;;9.31;100.00;101457.53;5079765;28;20047;-80
2022/10/26 03:15:33;;;;;;;20.27;12.48;;;;;;;9.29;100.00;101458.38;5057676;28;20035;-79
2022/10/26 03:18:01;;;;;;;21.90;12.55;;;;;;;9.27;100.00;101460.09;5053039;28;20051;-81
2022/10/26 03:20:30;;;;;;;22.95;12.45;;;;;;;9.26;100.00;101453.03;5094987;28;20044;-79
2022/10/26 03:22:59;;;;;;;17.35;12.68;;;;;;;9.23;100.00;101456.50;5088609;28;20056;-80
2022/10/26 03:25:28;;;;;;;21.15;12.38;;;;;;;9.22;100.00;101459.97;5085011;28;20561;-80
2022/10/26 03:27:58;;;;;;;19.58;11.98;;;;;;;9.21;100.00;101452.97;5040357;28;20074;-80
2022/10/26 03:30:27;;;;;;;16.52;12.07;;;;;;;9.20;100.00;101451.19;5099745;28;20044;-79
2022/10/26 03:32:55;;;;;;;18.38;11.18;;;;;;;9.17;100.00;101445.88;5101791;28;20051;-80
2022/10/26 03:35:24;;;;;;;19.10;11.23;;;;;;;9.16;100.00;101446.72;5083387;28;20036;-79
2022/10/26 03:37:52;;;;;;;16.23;10.60;;;;;;;9.14;100.00;101441.44;5110972;28;20059;-80
2022/10/26 03:40:21;;;;;;;18.05;13.00;;;;;;;9.14;100.00;101443.19;5070441;28;20160;-79
2022/10/26 03:42:49;;;;;;;15.95;12.50;;;;;;;9.12;100.00;101429.13;5046942;28;20048;-79
2022/10/26 03:45:18;;;;;;;15.93;11.82;;;;;;;9.10;100.00;101431.72;5048661;28;20655;-79
2022/10/26 03:47:48;;;;;;;20.30;12.50;;;;;;;9.07;100.00;101429.03;5057120;28;20505;-79
2022/10/26 03:50:19;;;;;;;19.13;13.57;;;;;;;9.06;100.00;101432.53;5059600;27;20086;-79
2022/10/26 03:52:47;;;;;;;;;;;;;;;9.04;100.00;101429.00;5076992;28;20059;-79
2022/10/26 03:55:18;;;;;;;20.33;12.43;;;;;;;9.02;100.00;101427.16;5066638;28;20427;-79
2022/10/26 03:57:46;;;;;;;21.85;12.77;;;;;;;8.99;100.00;101433.28;5024846;28;20047;-79
2022/10/26 04:00:16;;;;;;;20.52;12.30;;;;;;;8.97;100.00;101421.84;5065697;28;20039;-80
2022/10/26 04:02:52;;;;;;;25.70;12.85;;;;;;;8.94;100.00;101422.69;5073734;28;20048;-79
2022/10/26 04:05:21;;;;;;;23.13;13.88;;;;;;;8.93;100.00;101423.53;5066390;28;20229;-81
2022/10/26 04:07:57;;;;;;;20.58;15.05;;;;;;;8.93;100.00;101427.91;5042786;28;20048;-79
2022/10/26 04:10:26;;;;;;;24.20;15.77;;;;;;;8.92;100.00;101424.41;5082890;28;20044;-79
2022/10/26 04:12:55;;;;;;;21.25;15.27;;;;;;;8.92;100.00;101427.03;5038537;28;20400;-81
2022/10/26 04:15:23;;;;;;;27.38;16.20;;;;;;;8.92;100.00;101421.78;5065296;28;20236;-81
2022/10/26 04:17:57;;;;;;;26.08;15.70;;;;;;;8.94;100.00;101422.69;5089964;28;20051;-81
2022/10/26 04:20:27;;;;;;;26.60;16.02;;;;;;;8.94;100.00;101421.78;5049961;28;20056;-80
2022/10/26 04:23:03;;;;;;;25.50;15.25;;;;;;;8.96;100.00;101422.72;5068840;28;20040;-79
2022/10/26 04:25:33;;;;;;;24.48;16.48;;;;;;;8.97;100.00;101430.59;5048012;28;20032;-80
2022/10/26 04:28:04;;;;;;;21.15;15.13;;;;;;;8.96;100.00;101426.22;5061484;28;20040;-80
2022/10/26 04:30:34;;;;;;;26.77;17.30;;;;;;;8.98;100.00;101426.25;5077407;28;20402;-80
2022/10/26 04:33:03;;;;;;;26.25;18.20;;;;;;;8.97;100.00;101419.22;5079850;28;20040;-80
2022/10/26 04:35:33;;;;;;;26.45;16.80;;;;;;;8.98;100.00;101423.63;5083246;28;20032;-80
2022/10/26 04:38:04;;;;;;;36.30;16.83;;;;;;;8.99;100.00;101422.75;5078916;28;20040;-80
2022/10/26 04:40:34;;;;;;;26.90;16.35;;;;;;;8.99;100.00;101420.13;5061569;28;20032;-80
2022/10/26 04:43:02;;;;;;;24.35;15.38;;;;;;;9.01;100.00;101420.16;5062389;28;20048;-79
2022/10/26 04:45:31;;;;;;;28.23;15.43;;;;;;;9.00;100.00;101419.28;5052937;28;20048;-81
2022/10/26 04:48:09;;;;;;;25.35;16.08;;;;;;;9.00;100.00;101411.41;5055951;28;20056;-79
2022/10/26 04:50:38;;;;;;;24.88;16.33;;;;;;;9.01;100.00;101420.16;5084300;28;20044;-79
2022/10/26 04:53:08;;;;;;;22.08;15.80;;;;;;;9.01;100.00;101421.03;5080160;28;20405;-80
2022/10/26 04:55:36;;;;;;;20.73;14.77;;;;;;;9.02;100.00;101416.66;5071356;28;20255;-80
2022/10/26 04:58:06;;;;;;;30.55;16.55;;;;;;;9.06;100.00;101415.88;5096996;28;20393;-79
2022/10/26 05:00:35;;;;;;;37.33;21.85;;;;;;;9.07;100.00;101426.41;5051398;28;20040;-78
2022/10/26 05:03:06;;;;;;;27.63;16.77;;;;;;;9.10;100.00;101422.97;5044118;28;20523;-79
2022/10/26 05:05:36;;;;;;;24.13;16.08;;;;;;;9.11;100.00;101422.09;5078945;28;20199;-79
2022/10/26 05:08:05;;;;;;;26.73;16.20;;;;;;;9.12;100.00;101418.63;5068260;28;20055;-79
2022/10/26 05:10:34;;;;;;;24.63;16.10;;;;;;;9.12;100.00;101414.22;5084911;28;20043;-81
2022/10/26 05:13:02;;;;;;;27.73;16.65;;;;;;;9.11;100.00;101420.38;5078749;28;20396;-79
2022/10/26 05:15:30;;;;;;;26.52;16.02;;;;;;;9.11;100.00;101419.47;5032551;28;20032;-80
2022/10/26 05:18:02;;;;;;;26.67;16.45;;;;;;;9.10;100.00;101420.34;5084659;28;20043;-79
2022/10/26 05:20:32;;;;;;;25.05;15.77;;;;;;;9.09;100.00;101419.47;5101020;28;20048;-80
2022/10/26 05:23:02;;;;;;;;;;;;;;;9.08;100.00;101415.03;5103208;28;20059;-79
2022/10/26 05:25:33;;;;;;;24.25;15.25;;;;;;;9.09;100.00;101422.09;5094920;28;19920;-81
2022/10/26 05:28:05;;;;;;;28.88;16.02;;;;;;;9.08;100.00;101417.66;5089488;28;20044;-80
2022/10/26 05:30:34;;;;;;;28.13;17.63;;;;;;;9.12;100.00;101421.25;5038462;28;20051;-81
2022/10/26 05:33:02;;;;;;;30.05;17.30;;;;;;;9.13;100.00;101417.75;5098447;28;20047;-80
2022/10/26 05:35:31;;;;;;;24.77;16.08;;;;;;;9.13;100.00;101420.38;5088953;28;20047;-80
2022/10/26 05:38:06;;;;;;;26.25;16.42;;;;;;;9.14;100.00;101416.91;5105344;28;20499;-80
2022/10/26 05:40:34;;;;;;;27.92;16.88;;;;;;;9.15;100.00;101413.44;5074519;28;20043;-79
2022/10/26 05:43:03;;;;;;;33.35;16.50;;;;;;;9.16;100.00;101416.06;5100480;28;20598;-80
2022/10/26 05:45:31;;;;;;;29.45;18.23;;;;;;;9.18;100.00;101421.34;5054221;28;20024;-81
2022/10/26 05:48:00;;;;;;;26.02;16.05;;;;;;;9.21;100.00;101426.69;5069598;28;20051;-79
2022/10/26 05:50:30;;;;;;;27.38;15.55;;;;;;;9.24;100.00;101425.84;5080809;28;20051;-81
2022/10/26 05:52:59;;;;;;;29.40;15.60;;;;;;;9.27;100.00;101426.78;5080338;28;20508;-79
2022/10/26 05:55:29;;;;;;;27.88;16.48;;;;;;;9.30;100.00;101432.09;5065506;28;20244;-81
2022/10/26 05:57:59;;;;;;;22.13;15.40;;;;;;;9.33;100.00;101440.03;5084702;28;20044;-80
2022/10/26 06:00:31;;;;;;;22.25;14.82;;;;;;;9.34;100.00;101430.41;5037682;28;20050;-81
2022/10/26 06:03:03;;;;;;;21.88;13.98;;;;;;;9.37;100.00;101427.81;5097890;28;20048;-80
2022/10/26 06:05:44;;;;;;;24.15;14.20;;;;;;;9.41;100.00;101431.38;5102833;28;20048;-80
2022/10/26 06:08:12;;;;;;;21.95;14.20;;;;;;;9.42;100.00;101434.06;5103366;28;20040;-80
2022/10/26 06:10:41;;;;;;;19.92;13.63;;;;;;;9.44;100.00;101436.72;5072069;28;20146;-80
2022/10/26 06:13:09;;;;;;;22.30;13.40;;;;;;;9.47;100.00;101445.56;5088823;28;20064;-80
2022/10/26 06:15:47;;;;;;;26.42;14.88;;;;;;;9.49;100.00;101437.66;5043969;28;20363;-80
2022/10/26 06:18:34;;;;;;;23.02;14.82;;;;;;;9.50;100.00;101431.56;5094454;28;20051;-80
2022/10/26 06:21:21;;;;;;;23.35;13.95;;;;;;;9.53;100.00;101426.34;5097645;28;20043;-80
2022/10/26 06:23:58;;;;;;;20.88;14.35;;;;;;;9.53;100.00;101416.72;5085671;28;20700;-80
2022/10/26 06:27:10;;;;;;;24.90;13.60;;;;;;;9.56;100.00;101413.22;5053553;28;20076;-81
2022/10/26 06:29:48;;;;;;;22.08;13.00;;;;;;;9.56;100.00;101414.13;5088691;28;20039;-80
2022/10/26 06:32:17;;;;;;;22.25;14.05;;;;;;;9.58;100.00;101411.50;5072303;28;20059;-81
2022/10/26 06:34:48;;;;;;;25.48;14.68;;;;;;;9.58;100.00;101403.63;5085395;28;20055;-80
2022/10/26 06:37:17;;;;;;;27.77;14.05;;;;;;;9.58;100.00;101403.63;5070821;28;20366;-79
2022/10/26 06:39:49;;;;;;;23.48;12.48;;;;;;;9.59;100.00;101408.03;5057270;28;20062;-80
2022/10/26 06:42:22;;;;;;;19.00;12.82;;;;;;;9.60;100.00;101406.28;5081912;28;20055;-79
2022/10/26 06:44:51;;;;;;;23.63;14.55;;;;;;;9.62;100.00;101409.81;5090078;28;20071;-79
2022/10/26 06:47:30;;;;;;;17.63;12.02;;;;;;;9.63;100.00;101408.97;5054679;28;20035;-79
2022/10/26 06:50:27;;;;;;;18.65;11.88;;;;;;;9.67;100.00;101413.41;5093007;28;20425;-79
2022/10/26 06:53:10;;;;;;;18.80;12.02;;;;;;;9.69;100.00;101412.56;5086078;28;20499;-80
2022/10/26 06:55:44;;;;;;;19.83;11.82;;;;;;;9.71;100.00;101408.22;5101347;28;20040;-79
2022/10/26 06:58:19;;;;;;;17.10;11.75;;;;;;;9.76;100.00;101408.28;5089517;27;20039;-79
2022/10/26 07:00:50;;;;;;;18.90;11.10;;;;;;;9.81;100.00;101413.63;5087074;28;20177;-80
2022/10/26 07:03:19;;;;;;;18.08;10.68;;;;;;;9.85;100.00;101407.53;5072069;27;20039;-80
2022/10/26 07:05:48;;;;;;;15.25;11.68;;;;;;;9.88;100.00;101397.06;5092404;28;20344;-79
2022/10/26 07:08:17;;;;;;;16.27;11.75;;;;;;;9.90;100.00;101396.22;5104949;28;20032;-80
2022/10/26 07:10:51;;;;;;;17.02;10.68;;;;;;;9.97;100.00;101407.72;5110078;28;20043;-79
2022/10/26 07:13:20;;;;;;;13.13;10.20;;;;;;;10.01;100.00;101404.28;5068145;28;20055;-80
2022/10/26 07:15:48;;;;;;;15.38;10.27;;;;;;;10.06;100.00;101402.59;5044129;28;20701;-79
2022/10/26 07:18:17;;;;;;;15.45;10.02;;;;;;;10.10;100.00;101404.41;5037546;28;20579;-80
2022/10/26 07:20:45;;;;;;;14.38;9.05;;;;;;;10.14;100.00;101400.06;5074889;28;20597;-79
2022/10/26 07:23:14;;;;;;;17.30;9.45;;;;;;;10.19;100.00;101408.94;5100082;28;20495;-79
2022/10/26 07:25:43;;;;;;;16.83;10.07;;;;;;;10.24;100.00;101411.63;5100921;28;20162;-79
2022/10/26 07:28:11;;;;;;;13.10;9.23;;;;;;;10.27;100.00;101406.41;5082765;28;20032;-79
2022/10/26 07:30:40;;;;;;;17.67;9.30;;;;;;;10.32;100.00;101405.63;5058580;28;20164;-79
2022/10/26 07:33:11;;;;;;;13.60;9.60;;;;;;;10.34;100.00;101408.28;5074294;28;20044;-79
2022/10/26 07:35:40;;;;;;;12.73;8.63;;;;;;;10.37;100.00;101421.47;5052519;27;20065;-79
2022/10/26 07:38:08;;;;;;;16.05;8.95;;;;;;;10.41;100.00;101419.78;5072102;28;20044;-80
2022/10/26 07:40:37;;;;;;;11.70;7.60;;;;;;;10.43;100.00;101418.91;5083149;28;20048;-79
2022/10/26 07:43:05;;;;;;;14.07;8.23;;;;;;;10.47;100.00;101427.75;5064505;28;20044;-80
2022/10/26 07:45:35;;;;;;;10.52;9.13;;;;;;;10.48;100.00;101419.88;5045166;28;20075;-79
2022/10/26 07:48:04;;;;;;;10.93;8.63;;;;;;;10.50;100.00;101425.16;5072301;28;20044;-79
2022/10/26 07:50:33;;;;;;;10.15;7.68;;;;;;;10.53;100.00;101430.50;5056605;28;20045;-80
2022/10/26 07:53:02;;;;;;;16.43;9.53;;;;;;;10.53;100.00;101420.81;5045057;28;20062;-80
2022/10/26 07:55:30;;;;;;;11.68;9.30;;;;;;;10.56;100.00;101419.09;5064727;28;20051;-80
2022/10/26 07:57:58;;;;;;;13.50;9.60;;;;;;;10.58;100.00;101414.72;5056307;28;20048;-80
2022/10/26 08:00:28;;;;;;;14.00;9.95;;;;;;;10.61;100.00;101418.28;5055863;27;20582;-80
2022/10/26 08:02:57;;;;;;;14.18;8.65;;;;;;;10.63;100.00;101416.53;5084640;28;20064;-79
2022/10/26 08:05:25;;;;;;;12.82;8.85;;;;;;;10.67;100.00;101407.81;5074755;28;20063;-79
2022/10/26 08:07:54;;;;;;;12.55;9.20;;;;;;;10.72;100.00;101405.25;5056122;28;20049;-79
2022/10/26 08:10:22;;;;;;;17.35;8.82;;;;;;;10.76;100.00;101400.88;5065339;28;20052;-80
2022/10/26 08:12:51;;;;;;;13.95;8.50;;;;;;;10.82;100.00;101401.81;5079769;28;20260;-79
2022/10/26 08:15:20;;;;;;;11.05;8.75;;;;;;;10.87;100.00;101404.53;5082179;28;20039;-79
2022/10/26 08:17:48;;;;;;;10.45;8.02;;;;;;;10.92;100.00;101406.31;5047919;28;20115;-80
2022/10/26 08:20:17;;;;;;;16.02;8.98;;;;;;;10.97;100.00;101401.09;5081794;27;20516;-80
2022/10/26 08:22:46;;;;;;;11.15;8.93;;;;;;;11.05;100.00;101398.53;5035005;28;20066;-79
2022/10/26 08:25:15;;;;;;;12.88;9.32;;;;;;;11.11;100.00;101396.88;5092731;28;20036;-79
2022/10/26 08:27:48;;;;;;;10.68;8.85;;;;;;;11.17;100.00;101401.31;5092956;28;20652;-79
2022/10/26 08:30:17;;;;;;;20.35;8.60;;;;;;;11.24;100.00;101405.75;5079551;28;20036;-80
2022/10/26 08:32:45;;;;;;;9.25;8.35;;;;;;;11.32;100.00;101414.66;5063602;28;20058;-79
2022/10/26 08:35:14;;;;;;;8.48;7.50;;;;;;;11.42;100.00;101412.09;5089362;28;20042;-80
2022/10/26 08:37:43;;;;;;;11.13;8.15;;;;;;;11.52;100.00;101416.56;5043984;28;20234;-79
2022/10/26 08:40:15;;;;;;;10.57;8.68;;;;;;;11.59;100.00;101407.84;5074350;28;20135;-79
2022/10/26 08:42:48;;;;;;;12.85;8.40;;;;;;;11.69;100.00;101409.66;5100009;28;20063;-80
2022/10/26 08:45:31;;;;;;;12.15;8.15;;;;;;;11.77;100.00;101404.44;5079117;28;20032;-79
2022/10/26 08:48:12;;;;;;;12.38;8.18;;;;;;;11.85;100.00;101410.69;5087713;28;20377;-79
2022/10/26 08:50:48;;;;;;;8.73;7.65;;;;;;;11.90;100.00;101421.28;5046164;28;20436;-78
2022/10/26 08:53:52;;;;;;;13.10;7.60;;;;;;;11.96;100.00;101416.03;5074307;28;20040;-79
2022/10/26 08:56:44;;;;;;;13.57;8.32;;;;;;;12.05;100.00;101412.59;5025006;28;20049;-79
2022/10/26 08:59:42;;;;;;;12.82;8.10;;;;;;;12.17;100.00;101409.13;5097111;28;20043;-78
2022/10/26 09:02:15;;;;;;;12.85;8.73;;;;;;;12.25;100.00;101407.44;5073616;28;20059;-80
2022/10/26 09:04:44;;;;;;;12.10;7.57;;;;;;;12.34;100.00;101403.94;5080399;28;20465;-78
2022/10/26 09:07:28;;;;;;;10.55;6.57;;;;;;;12.44;100.00;101395.19;5050458;28;20046;-78
2022/10/26 09:10:13;;;;;;;13.48;6.80;;;;;;;12.54;100.00;101394.31;5094961;28;20039;-77
2022/10/26 09:13:02;;;;;;;7.53;6.13;;;;;;;12.62;100.00;101395.22;5100491;28;20079;-77
2022/10/26 09:16:04;;;;;;;8.50;5.47;;;;;;;12.70;100.00;101397.03;5054731;28;20056;-83
2022/10/26 09:18:41;;;;;;;7.60;5.13;;;;;;;12.75;100.00;101406.75;5073534;28;20489;-82
2022/10/26 09:21:26;;;;;;;9.32;6.15;;;;;;;12.81;100.00;101405.88;5099520;28;20046;-82
2022/10/26 09:24:02;;;;;;;7.50;5.05;;;;;;;12.84;100.00;101400.59;5083629;28;20054;-81
2022/10/26 09:26:34;;;;;;;11.40;5.70;;;;;;;12.84;100.00;101397.97;5080630;28;20404;-82
2022/10/26 09:29:09;;;;;;;7.90;5.13;;;;;;;12.87;100.00;101398.84;5106709;28;20066;-82
2022/10/26 09:31:41;;;;;;;5.60;5.03;;;;;;;12.97;100.00;101409.47;5094733;28;20040;-82
2022/10/26 09:34:19;;;;;;;8.98;5.70;;;;;;;13.07;100.00;101406.81;5087694;28;20035;-81
2022/10/26 09:36:54;;;;;;;6.78;4.97;;;;;;;13.18;100.00;101406.84;5033224;28;20062;-82
2022/10/26 09:39:42;;;;;;;8.23;4.57;;;;;;;13.29;100.00;101413.91;5089120;28;20035;-82
2022/10/26 09:42:21;;;;;;;10.10;4.60;;;;;;;13.42;100.00;101410.41;5080667;28;20547;-82
2022/10/26 09:45:12;;;;;;;4.88;4.05;;;;;;;13.58;100.00;101411.31;5075384;28;20276;-82
2022/10/26 09:47:48;;;;;;;7.65;4.47;;;;;;;13.74;100.00;101413.06;5057800;28;20074;-81
2022/10/26 09:50:25;;;;;;;7.18;3.65;;;;;;;13.92;100.00;101416.59;5076819;28;20040;-82
2022/10/26 09:52:53;;;;;;;5.22;3.65;;;;;;;14.04;100.00;101413.91;5067495;28;20410;-81
2022/10/26 09:55:22;;;;;;;7.82;3.88;;;;;;;14.12;100.00;101405.91;5081893;28;20050;-82
2022/10/26 09:57:55;;;;;;;6.13;3.22;;;;;;;14.21;100.00;101405.91;5093717;28;20071;-83
2022/10/26 10:00:25;;;;;;;5.70;3.33;;;;;;;14.32;100.00;101408.53;5068381;28;20035;-84
2022/10/26 10:02:57;;;;;;;4.43;2.85;;;;;;;14.44;100.00;101411.13;5099218;28;20028;-83
2022/10/26 10:05:31;;;;;;;4.53;3.03;;;;;;;14.58;100.00;101419.06;5058252;28;20706;-83
2022/10/26 10:08:20;;;;;;;6.90;3.10;;;;;;;14.76;100.00;101424.31;5065365;28;20322;-83
2022/10/26 10:11:04;;;;;;;6.60;3.53;;;;;;;14.92;100.00;101424.22;5079801;28;20044;-83
2022/10/26 10:13:35;;;;;;;3.38;3.08;;;;;;;15.02;100.00;101413.50;5061400;28;20044;-82
2022/10/26 10:16:20;;;;;;;5.65;3.42;;;;;;;15.14;100.00;101417.88;5071552;28;20114;-82
2022/10/26 10:18:56;;;;;;;4.65;3.00;;;;;;;15.27;100.00;101420.44;5104712;28;20150;-83
2022/10/26 10:21:47;;;;;;;5.22;3.10;;;;;;;15.42;100.00;101424.75;5087972;28;20043;-81
2022/10/26 10:24:30;;;;;;;6.50;2.90;;;;;;;15.55;100.00;101429.94;5083028;28;20028;-82
2022/10/26 10:27:17;;;;;;;3.92;3.53;;;;;;;15.63;100.00;101434.34;5082197;28;20036;-80
2022/10/26 10:29:45;;;;;;;7.35;3.00;;;;;;;15.69;100.00;101431.63;5090272;28;20051;-80
2022/10/26 10:32:26;;;;;;;7.40;3.13;;;;;;;15.73;100.00;101431.63;5104500;28;20050;-81
2022/10/26 10:34:57;;;;;;;4.28;3.17;;;;;;;15.77;100.00;101435.13;5085706;28;20034;-81
2022/10/26 10:37:44;;;;;;;6.75;3.35;;;;;;;15.78;100.00;101443.09;5071827;28;20059;-80
2022/10/26 10:40:19;;;;;;;5.32;3.00;;;;;;;15.80;100.00;101437.75;5070856;28;20036;-80
2022/10/26 10:42:54;;;;;;;5.78;2.60;;;;;;;15.83;100.00;101436.84;5068962;28;20047;-80
2022/10/26 10:45:25;;;;;;;6.28;2.85;;;;;;;15.89;100.00;101439.44;5057619;28;20055;-80
2022/10/26 10:48:12;;;;;;;7.03;2.53;;;;;;;15.91;100.00;101435.00;5091388;28;20044;-81
2022/10/26 10:51:11;;;;;;;3.92;2.00;;;;;;;15.96;100.00;101431.41;5080499;28;20036;-82
2022/10/26 10:53:50;;;;;;;4.60;2.60;;;;;;;16.01;100.00;101430.47;5087376;28;20040;-84
2022/10/26 10:56:47;;;;;;;2.95;2.28;;;;;;;16.04;100.00;101435.78;5028446;28;20212;-85
2022/10/26 10:59:37;;;;;;;9.10;2.72;;;;;;;16.01;100.00;101439.34;5063483;28;20048;-84
2022/10/26 11:02:12;;;;;;;5.28;2.58;;;;;;;15.98;100.00;101452.66;5062063;28;20037;-83
2022/10/26 11:05:02;;;;;;;6.45;2.75;;;;;;;15.92;100.00;101432.34;5050127;28;20352;-83
2022/10/26 11:07:43;;;;;;;4.22;2.53;;;;;;;15.87;100.00;101433.28;5077187;28;20037;-83
2022/10/26 11:10:16;;;;;;;6.38;3.60;;;;;;;15.86;100.00;101432.41;5074796;28;20044;-83
2022/10/26 11:12:57;;;;;;;8.23;2.85;;;;;;;15.88;100.00;101435.03;5052063;28;20113;-83
2022/10/26 11:15:30;;;;;;;3.83;3.15;;;;;;;15.87;100.00;101439.47;5071858;28;20489;-83
2022/10/26 11:18:10;;;;;;;4.63;2.72;;;;;;;15.87;100.00;101434.16;5058514;28;20047;-83
2022/10/26 11:20:46;;;;;;;4.20;2.95;;;;;;;15.89;100.00;101434.13;5040975;28;20278;-83
2022/10/26 11:24:10;;;;;;;4.75;2.42;;;;;;;15.87;100.00;101434.16;5050005;28;20208;-82
2022/10/26 11:26:44;;;;;;;4.65;2.60;;;;;;;15.87;100.00;101426.16;5028759;28;20044;-84
2022/10/26 11:29:23;;;;;;;7.13;2.90;;;;;;;15.86;100.00;101424.44;5064170;28;20380;-83
2022/10/26 11:32:00;;;;;;;3.70;2.88;;;;;;;15.87;100.00;101423.50;5074667;28;20048;-84
2022/10/26 11:34:36;;;;;;;4.75;3.22;;;;;;;15.91;100.00;101416.41;5057492;28;20324;-83
2022/10/26 11:37:38;;;;;;;6.57;3.22;;;;;;;15.95;100.00;101427.00;5091928;28;20044;-83
2022/10/26 11:40:11;;;;;;;5.65;2.63;;;;;;;16.00;100.00;101423.41;5060417;28;20036;-84
2022/10/26 11:42:45;;;;;;;4.50;3.00;;;;;;;16.02;100.00;101422.50;5061748;28;20477;-83
2022/10/26 11:45:22;;;;;;;6.35;3.25;;;;;;;16.07;100.00;101430.44;5047407;28;20052;-83